Time;durP1;ratioP1;P1;durP2;ratioP2;P2;SDS_P1;SDS_P2;PMS_P1;PMS_P2;Temp;Humidity;BMP_temperature;BMP_pressure;BME280_temperature;BME280_humidity;BME280_pressure;Samples;Min_cycle;Max_cycle;Signal;HPM_P1;HPM_P2
2023/03/08 00:01:17;;;;;;;;;;;1.90;99.90;;;;;;4988228;28;19928;-65
2023/03/08 00:03:42;;;;;;;;;;;1.90;99.90;;;;;;4988735;28;19920;-66
2023/03/08 00:06:10;;;;;;;;;;;1.90;99.90;;;;;;4990801;28;19914;-66
2023/03/08 00:08:35;;;;;;;;;;;1.90;99.90;;;;;;4986696;28;19920;-66
2023/03/08 00:11:07;;;;;;;;;;;1.80;99.90;;;;;;4989277;28;19913;-64
2023/03/08 00:13:33;;;;;;;;;;;1.80;99.90;;;;;;4987906;28;19918;-65
2023/03/08 00:16:00;;;;;;;;;;;1.90;99.90;;;;;;4987452;28;19921;-64
2023/03/08 00:18:25;;;;;;;;;;;1.90;99.90;;;;;;4987770;28;19914;-65
2023/03/08 00:21:01;;;;;;;;;;;1.90;99.90;;;;;;4990499;28;20563;-65
2023/03/08 00:23:26;;;;;;;;;;;1.90;99.90;;;;;;4989692;28;19914;-64
2023/03/08 00:25:53;;;;;;;;;;;1.90;99.90;;;;;;4989305;28;19948;-65
2023/03/08 00:28:18;;;;;;;;;;;1.90;99.90;;;;;;4991409;28;19914;-65
2023/03/08 00:30:43;;;;;;;;;;;2.00;99.90;;;;;;4986053;28;19929;-64
2023/03/08 00:33:09;;;;;;;;;;;1.90;99.90;;;;;;4970473;28;19914;-64
2023/03/08 00:35:34;;;;;;;;;;;1.90;99.90;;;;;;4993051;28;19914;-64
2023/03/08 00:38:00;;;;;;;;;;;1.90;99.90;;;;;;4991681;28;19914;-64
2023/03/08 00:40:25;;;;;;;;;;;2.00;99.90;;;;;;4985837;28;19922;-64
2023/03/08 00:42:51;;;;;;;;;;;2.00;99.90;;;;;;4970522;28;19961;-65
2023/03/08 00:45:16;;;;;;;;;;;2.10;99.90;;;;;;4986146;28;20434;-64
2023/03/08 00:47:41;;;;;;;;;;;2.00;99.90;;;;;;4987682;28;19918;-66
2023/03/08 00:50:07;;;;;;;;;;;2.10;99.90;;;;;;4987430;28;19988;-65
2023/03/08 00:52:33;;;;;;;;;;;2.10;99.90;;;;;;4990540;28;20003;-65
2023/03/08 00:54:58;;;;;;;;;;;2.10;99.90;;;;;;4991100;28;19994;-65
2023/03/08 00:57:24;;;;;;;;;;;2.00;99.90;;;;;;4988989;28;19921;-66
2023/03/08 00:59:49;;;;;;;;;;;2.00;99.90;;;;;;4990772;28;19918;-66
2023/03/08 01:02:15;;;;;;;;;;;1.90;99.90;;;;;;4988600;28;20407;-65
2023/03/08 01:04:40;;;;;;;;;;;1.90;99.90;;;;;;4986914;28;19968;-66
2023/03/08 01:07:06;;;;;;;;;;;2.00;99.90;;;;;;4989960;28;19914;-66
2023/03/08 01:09:31;;;;;;;;;;;2.00;99.90;;;;;;4978859;28;20295;-66
2023/03/08 01:11:56;;;;;;;;;;;1.90;99.90;;;;;;4992715;28;19914;-64
2023/03/08 01:14:22;;;;;;;;;;;2.00;99.90;;;;;;4992845;28;19929;-65
2023/03/08 01:16:47;;;;;;;;;;;2.00;99.90;;;;;;4994764;28;19929;-65
2023/03/08 01:19:13;;;;;;;;;;;2.00;99.90;;;;;;4990763;28;19929;-64
2023/03/08 01:21:38;;;;;;;;;;;2.00;99.90;;;;;;4990317;28;20004;-63
2023/03/08 01:24:04;;;;;;;;;;;2.00;99.90;;;;;;4993571;28;19918;-65
2023/03/08 01:26:29;;;;;;;;;;;1.90;99.90;;;;;;4990023;28;19921;-65
2023/03/08 01:28:55;;;;;;;;;;;1.90;99.90;;;;;;4988052;28;19921;-65
2023/03/08 01:31:22;;;;;;;;;;;1.90;99.90;;;;;;4989962;28;19914;-64
2023/03/08 01:33:48;;;;;;;;;;;1.90;99.90;;;;;;4990833;28;19914;-65
2023/03/08 01:36:15;;;;;;;;;;;1.90;99.90;;;;;;4990122;28;19920;-64
2023/03/08 01:38:41;;;;;;;;;;;1.90;99.90;;;;;;4997640;28;19914;-63
2023/03/08 01:41:07;;;;;;;;;;;2.00;99.90;;;;;;4987570;28;20404;-64
2023/03/08 01:43:35;;;;;;;;;;;2.00;99.90;;;;;;4992270;28;20446;-66
2023/03/08 01:46:06;;;;;;;;;;;2.10;99.90;;;;;;4991801;28;19941;-66
2023/03/08 01:48:35;;;;;;;;;;;2.10;99.90;;;;;;4978051;28;19949;-66
2023/03/08 01:51:01;;;;;;;;;;;2.10;99.90;;;;;;4990032;28;19918;-65
2023/03/08 01:53:27;;;;;;;;;;;1.90;99.90;;;;;;4992879;28;19947;-65
2023/03/08 01:55:53;;;;;;;;;;;1.80;99.90;;;;;;4988240;28;20371;-65
2023/03/08 01:58:18;;;;;;;;;;;1.80;99.90;;;;;;4990548;28;19959;-65
2023/03/08 02:00:44;;;;;;;;;;;1.70;99.90;;;;;;4985931;28;19921;-66
2023/03/08 02:03:10;;;;;;;;;;;1.80;99.90;;;;;;4985505;28;19941;-65
2023/03/08 02:05:37;;;;;;;;;;;1.90;99.90;;;;;;4987134;28;20398;-66
2023/03/08 02:08:03;;;;;;;;;;;1.90;99.90;;;;;;4991998;28;19964;-64
2023/03/08 02:10:28;;;;;;;;;;;2.00;99.90;;;;;;4986910;28;19937;-65
2023/03/08 02:12:54;;;;;;;;;;;2.00;99.90;;;;;;4990996;28;19921;-65
2023/03/08 02:15:20;;;;;;;;;;;1.90;99.90;;;;;;4987933;28;19916;-64
2023/03/08 02:17:45;;;;;;;;;;;1.90;99.90;;;;;;4988622;28;19918;-64
2023/03/08 02:20:16;;;;;;;;;;;1.80;99.90;;;;;;4991756;28;20409;-65
2023/03/08 02:22:43;;;;;;;;;;;1.80;99.90;;;;;;4987266;28;20128;-65
2023/03/08 02:25:13;;;;;;;;;;;1.80;99.90;;;;;;4990389;28;19917;-64
2023/03/08 02:27:38;;;;;;;;;;;1.80;99.90;;;;;;4991962;28;19939;-66
2023/03/08 02:30:04;;;;;;;;;;;1.80;99.90;;;;;;4986787;28;20029;-65
2023/03/08 02:32:29;;;;;;;;;;;1.90;99.90;;;;;;4989465;28;19914;-66
2023/03/08 02:34:54;;;;;;;;;;;2.00;99.90;;;;;;4988178;28;19921;-65
2023/03/08 02:37:20;;;;;;;;;;;2.00;99.90;;;;;;4989492;28;19921;-66
2023/03/08 02:39:45;;;;;;;;;;;2.00;99.90;;;;;;4987921;28;19928;-66
2023/03/08 02:42:11;;;;;;;;;;;1.90;99.90;;;;;;4991745;28;19936;-66
2023/03/08 02:44:36;;;;;;;;;;;1.90;99.90;;;;;;4991204;28;20272;-66
2023/03/08 02:47:02;;;;;;;;;;;1.80;99.90;;;;;;4985378;28;19928;-66
2023/03/08 02:49:27;;;;;;;;;;;1.90;99.90;;;;;;4988949;28;19914;-66
2023/03/08 02:51:52;;;;;;;;;;;1.90;99.90;;;;;;4992381;28;19922;-66
2023/03/08 02:54:18;;;;;;;;;;;1.90;99.90;;;;;;4989178;28;20295;-65
2023/03/08 02:56:43;;;;;;;;;;;2.00;99.90;;;;;;4986612;28;20004;-65
2023/03/08 02:59:09;;;;;;;;;;;1.90;99.90;;;;;;4977131;28;19977;-66
2023/03/08 03:01:34;;;;;;;;;;;1.90;99.90;;;;;;4990514;28;19918;-64
2023/03/08 03:04:00;;;;;;;;;;;1.90;99.90;;;;;;4990274;28;20001;-65
2023/03/08 03:06:25;;;;;;;;;;;1.80;99.90;;;;;;4970936;28;19921;-65
2023/03/08 03:08:51;;;;;;;;;;;1.80;99.90;;;;;;4991213;28;19957;-65
2023/03/08 03:11:18;;;;;;;;;;;1.80;99.90;;;;;;4988869;28;19981;-66
2023/03/08 03:13:44;;;;;;;;;;;1.70;99.90;;;;;;4971704;28;19921;-66
2023/03/08 03:16:11;;;;;;;;;;;1.70;99.90;;;;;;4990658;28;19914;-65
2023/03/08 03:18:36;;;;;;;;;;;1.80;99.90;;;;;;4988891;28;19921;-66
2023/03/08 03:21:06;;;;;;;;;;;1.80;99.90;;;;;;4985238;28;19926;-65
2023/03/08 03:23:31;;;;;;;;;;;1.80;99.90;;;;;;4988405;28;19914;-66
2023/03/08 03:26:02;;;;;;;;;;;1.90;99.90;;;;;;4974202;28;19972;-66
2023/03/08 03:28:28;;;;;;;;;;;1.90;99.90;;;;;;4987595;28;20350;-66
2023/03/08 03:30:53;;;;;;;;;;;1.90;99.90;;;;;;4987287;28;19976;-67
2023/03/08 03:33:18;;;;;;;;;;;1.90;99.90;;;;;;4985531;28;19920;-66
2023/03/08 03:35:44;;;;;;;;;;;1.90;99.90;;;;;;4988707;28;20391;-66
2023/03/08 03:38:09;;;;;;;;;;;1.90;99.90;;;;;;4983940;28;20401;-66
2023/03/08 03:40:35;;;;;;;;;;;1.90;99.90;;;;;;4986864;28;19917;-66
2023/03/08 03:43:00;;;;;;;;;;;1.80;99.90;;;;;;4987869;28;19914;-65
2023/03/08 03:45:26;;;;;;;;;;;1.80;99.90;;;;;;4986324;28;20004;-66
2023/03/08 03:47:51;;;;;;;;;;;1.90;99.90;;;;;;4988477;28;19921;-66
2023/03/08 03:50:17;;;;;;;;;;;1.80;99.90;;;;;;4988351;28;19921;-65
2023/03/08 03:52:42;;;;;;;;;;;1.90;99.90;;;;;;4990032;28;19921;-66
2023/03/08 03:55:08;;;;;;;;;;;1.80;99.90;;;;;;4992946;28;19910;-65
2023/03/08 03:57:33;;;;;;;;;;;1.80;99.90;;;;;;4990629;28;19918;-65
2023/03/08 03:59:59;;;;;;;;;;;1.80;99.90;;;;;;4995715;28;19968;-65
2023/03/08 04:02:24;;;;;;;;;;;1.80;99.90;;;;;;4990605;28;19913;-66
2023/03/08 04:04:50;;;;;;;;;;;1.80;99.90;;;;;;4991966;28;19991;-66
2023/03/08 04:07:15;;;;;;;;;;;1.80;99.90;;;;;;4991897;28;20065;-65
2023/03/08 04:09:41;;;;;;;;;;;1.70;99.90;;;;;;4989588;28;19922;-66
2023/03/08 04:12:06;;;;;;;;;;;1.60;99.90;;;;;;4991972;28;20013;-66
2023/03/08 04:14:32;;;;;;;;;;;1.70;99.90;;;;;;4992648;28;20342;-64
2023/03/08 04:16:57;;;;;;;;;;;1.70;99.90;;;;;;4986920;28;19972;-65
2023/03/08 04:19:23;;;;;;;;;;;1.70;99.90;;;;;;4991453;28;19917;-66
2023/03/08 04:21:48;;;;;;;;;;;1.70;99.90;;;;;;4991189;28;20298;-65
2023/03/08 04:24:14;;;;;;;;;;;1.70;99.90;;;;;;4992113;28;19949;-66
2023/03/08 04:26:39;;;;;;;;;;;1.70;99.90;;;;;;4991823;28;20463;-66
2023/03/08 04:29:05;;;;;;;;;;;1.70;99.90;;;;;;4991530;28;19918;-66
2023/03/08 04:31:32;;;;;;;;;;;1.70;99.90;;;;;;4988704;28;19914;-66
2023/03/08 04:33:57;;;;;;;;;;;1.70;99.90;;;;;;4993463;28;20388;-65
2023/03/08 04:36:23;;;;;;;;;;;1.70;99.90;;;;;;4995413;28;19928;-65
2023/03/08 04:38:48;;;;;;;;;;;1.70;99.90;;;;;;4988375;28;19913;-65
2023/03/08 04:41:14;;;;;;;;;;;1.70;99.90;;;;;;4987968;28;19918;-65
2023/03/08 04:43:43;;;;;;;;;;;1.70;99.90;;;;;;4991973;28;19963;-65
2023/03/08 04:46:08;;;;;;;;;;;1.70;99.90;;;;;;4989019;28;19969;-65
2023/03/08 04:48:34;;;;;;;;;;;1.70;99.90;;;;;;4994105;28;20304;-65
2023/03/08 04:51:01;;;;;;;;;;;1.70;99.90;;;;;;4989633;28;20335;-66
2023/03/08 04:53:27;;;;;;;;;;;1.70;99.90;;;;;;4988306;28;19918;-66
2023/03/08 04:55:53;;;;;;;;;;;1.70;99.90;;;;;;4991064;28;19941;-66
2023/03/08 04:58:19;;;;;;;;;;;1.80;99.90;;;;;;4990397;28;20332;-66
2023/03/08 05:00:44;;;;;;;;;;;1.70;99.90;;;;;;4991753;28;19918;-64
2023/03/08 05:03:10;;;;;;;;;;;1.70;99.90;;;;;;4990594;28;19913;-65
2023/03/08 05:05:35;;;;;;;;;;;1.70;99.90;;;;;;4993385;28;19969;-66
2023/03/08 05:08:04;;;;;;;;;;;1.70;99.90;;;;;;4974867;28;20067;-65
2023/03/08 05:10:30;;;;;;;;;;;1.80;99.90;;;;;;4991274;28;19918;-67
2023/03/08 05:12:56;;;;;;;;;;;1.70;99.90;;;;;;4989250;28;19976;-65
2023/03/08 05:15:22;;;;;;;;;;;1.70;99.90;;;;;;4988888;28;19960;-65
2023/03/08 05:17:48;;;;;;;;;;;1.70;99.90;;;;;;4991702;28;20331;-66
2023/03/08 05:20:13;;;;;;;;;;;1.70;99.90;;;;;;4970932;28;19922;-64
2023/03/08 05:22:39;;;;;;;;;;;1.60;99.90;;;;;;4990552;28;20277;-65
2023/03/08 05:25:04;;;;;;;;;;;1.70;99.90;;;;;;4991039;28;19917;-64
2023/03/08 05:27:31;;;;;;;;;;;1.70;99.90;;;;;;4991328;28;19914;-62
2023/03/08 05:29:56;;;;;;;;;;;1.70;99.90;;;;;;4986536;28;20019;-63
2023/03/08 05:32:21;;;;;;;;;;;1.60;99.90;;;;;;4990055;28;20439;-62
2023/03/08 05:34:47;;;;;;;;;;;1.70;99.90;;;;;;4990696;28;20319;-63
2023/03/08 05:37:12;;;;;;;;;;;1.70;99.90;;;;;;4976153;28;19918;-65
2023/03/08 05:39:38;;;;;;;;;;;1.70;99.90;;;;;;4990147;28;19960;-64
2023/03/08 05:42:03;;;;;;;;;;;1.70;99.90;;;;;;4989612;28;19921;-64
2023/03/08 05:44:29;;;;;;;;;;;1.70;99.90;;;;;;4989787;28;19936;-64
2023/03/08 05:46:54;;;;;;;;;;;1.60;99.90;;;;;;4990926;28;19928;-64
2023/03/08 05:49:20;;;;;;;;;;;1.70;99.90;;;;;;4989091;28;19913;-64
2023/03/08 05:51:45;;;;;;;;;;;1.60;99.90;;;;;;4994596;28;19918;-64
2023/03/08 05:54:10;;;;;;;;;;;1.60;99.90;;;;;;4991240;28;19913;-65
2023/03/08 05:56:36;;;;;;;;;;;1.60;99.90;;;;;;4989224;28;20008;-65
2023/03/08 05:59:02;;;;;;;;;;;1.60;99.90;;;;;;4993069;28;20453;-64
2023/03/08 06:01:27;;;;;;;;;;;1.60;99.90;;;;;;4990903;28;19917;-64
2023/03/08 06:03:54;;;;;;;;;;;1.60;99.90;;;;;;4987472;28;19972;-64
2023/03/08 06:06:20;;;;;;;;;;;1.60;99.90;;;;;;4989692;28;19914;-64
2023/03/08 06:08:46;;;;;;;;;;;1.50;99.90;;;;;;4992298;28;19961;-65
2023/03/08 06:11:12;;;;;;;;;;;1.60;99.90;;;;;;4985582;28;19961;-64
2023/03/08 06:13:37;;;;;;;;;;;1.60;99.90;;;;;;4992522;28;19917;-64
2023/03/08 06:16:03;;;;;;;;;;;1.60;99.90;;;;;;4987961;28;19921;-64
2023/03/08 06:18:29;;;;;;;;;;;1.60;99.90;;;;;;4988386;28;19914;-63
2023/03/08 06:21:02;;;;;;;;;;;1.70;99.90;;;;;;4992985;28;19917;-64
2023/03/08 06:23:28;;;;;;;;;;;1.70;99.90;;;;;;4984606;28;19918;-63
2023/03/08 06:25:54;;;;;;;;;;;1.60;99.90;;;;;;4987563;28;19926;-64
2023/03/08 06:28:20;;;;;;;;;;;1.60;99.90;;;;;;4986447;28;19914;-63
2023/03/08 06:30:48;;;;;;;;;;;1.70;99.90;;;;;;4993505;28;19925;-64
2023/03/08 06:33:14;;;;;;;;;;;1.70;99.90;;;;;;4991288;28;19914;-64
2023/03/08 06:35:39;;;;;;;;;;;1.70;99.90;;;;;;4994970;28;20024;-65
2023/03/08 06:38:05;;;;;;;;;;;1.70;99.90;;;;;;4992652;28;20043;-64
2023/03/08 06:40:30;;;;;;;;;;;1.70;99.90;;;;;;4989478;28;20861;-62
2023/03/08 06:42:56;;;;;;;;;;;1.60;99.90;;;;;;4991613;28;19914;-63
2023/03/08 06:45:21;;;;;;;;;;;1.60;99.90;;;;;;4986691;28;19931;-64
2023/03/08 06:47:46;;;;;;;;;;;1.60;99.90;;;;;;4992789;28;20394;-63
2023/03/08 06:50:12;;;;;;;;;;;1.60;99.90;;;;;;4986278;28;20031;-64
2023/03/08 06:52:37;;;;;;;;;;;1.60;99.90;;;;;;4986986;28;19918;-64
2023/03/08 06:55:03;;;;;;;;;;;1.60;99.90;;;;;;4988270;28;20372;-58
2023/03/08 06:57:29;;;;;;;;;;;1.60;99.90;;;;;;4987989;28;19914;-58
2023/03/08 06:59:54;;;;;;;;;;;1.70;99.90;;;;;;4987981;28;19926;-58
2023/03/08 07:02:20;;;;;;;;;;;1.70;99.90;;;;;;4980556;28;19977;-58
2023/03/08 07:04:45;;;;;;;;;;;1.80;99.90;;;;;;4988670;28;20459;-59
2023/03/08 07:07:11;;;;;;;;;;;1.80;99.90;;;;;;4985776;28;19925;-58
2023/03/08 07:09:36;;;;;;;;;;;1.80;99.90;;;;;;4986610;28;19921;-56
2023/03/08 07:12:02;;;;;;;;;;;1.70;99.90;;;;;;4985012;28;20157;-57
2023/03/08 07:14:27;;;;;;;;;;;1.70;99.90;;;;;;4983227;28;19939;-59
2023/03/08 07:16:53;;;;;;;;;;;1.70;99.90;;;;;;4985267;28;19922;-58
2023/03/08 07:19:18;;;;;;;;;;;1.70;99.90;;;;;;4985995;28;19914;-55
2023/03/08 07:21:44;;;;;;;;;;;1.80;99.90;;;;;;4983474;28;19926;-54
2023/03/08 07:24:09;;;;;;;;;;;1.80;99.90;;;;;;4987577;28;19926;-58
2023/03/08 07:26:35;;;;;;;;;;;1.80;99.90;;;;;;4988273;28;19976;-58
2023/03/08 07:29:00;;;;;;;;;;;1.80;99.90;;;;;;4994175;28;19916;-58
2023/03/08 07:31:27;;;;;;;;;;;1.80;99.90;;;;;;4986564;28;19914;-61
2023/03/08 07:33:53;;;;;;;;;;;1.80;99.90;;;;;;4998072;28;20284;-57
2023/03/08 07:36:19;;;;;;;;;;;1.90;99.90;;;;;;4995514;28;20001;-59
2023/03/08 07:38:45;;;;;;;;;;;1.90;99.90;;;;;;4990556;28;19961;-56
2023/03/08 07:41:11;;;;;;;;;;;1.90;99.90;;;;;;4989054;28;19925;-56
2023/03/08 07:43:36;;;;;;;;;;;1.90;99.90;;;;;;4992243;28;19936;-57
2023/03/08 07:46:03;;;;;;;;;;;2.00;99.90;;;;;;4994864;28;19993;-55
2023/03/08 07:48:29;;;;;;;;;;;2.00;99.90;;;;;;4991392;28;19918;-57
2023/03/08 07:50:59;;;;;;;;;;;2.00;99.90;;;;;;4990515;28;19953;-57
2023/03/08 07:53:24;;;;;;;;;;;2.00;99.90;;;;;;4993679;28;19932;-58
2023/03/08 07:55:49;;;;;;;;;;;2.00;99.90;;;;;;4995628;28;20004;-57
2023/03/08 07:58:15;;;;;;;;;;;2.00;99.90;;;;;;4993092;28;19922;-58
2023/03/08 08:00:40;;;;;;;;;;;2.00;99.90;;;;;;4994577;28;19921;-58
2023/03/08 08:03:06;;;;;;;;;;;1.90;99.90;;;;;;4991764;28;20494;-60
2023/03/08 08:05:33;;;;;;;;;;;1.90;99.90;;;;;;4989178;28;19936;-54
2023/03/08 08:07:59;;;;;;;;;;;2.00;99.90;;;;;;4993490;28;19910;-54
2023/03/08 08:10:24;;;;;;;;;;;2.00;99.90;;;;;;4991766;28;20405;-57
2023/03/08 08:12:49;;;;;;;;;;;2.00;99.90;;;;;;4990608;28;19999;-56
2023/03/08 08:15:16;;;;;;;;;;;2.00;99.90;;;;;;4991868;28;19918;-58
2023/03/08 08:17:41;;;;;;;;;;;2.10;99.90;;;;;;4996024;28;19922;-54
2023/03/08 08:20:07;;;;;;;;;;;2.00;99.90;;;;;;4992358;28;19924;-53
2023/03/08 08:22:35;;;;;;;;;;;2.00;99.90;;;;;;4996134;28;19914;-56
2023/03/08 08:25:03;;;;;;;;;;;2.00;99.90;;;;;;4995092;28;19924;-56
2023/03/08 08:27:28;;;;;;;;;;;1.90;99.90;;;;;;4991982;28;19914;-58
2023/03/08 08:29:53;;;;;;;;;;;2.10;99.90;;;;;;4992521;28;19944;-57
2023/03/08 08:32:19;;;;;;;;;;;2.00;99.90;;;;;;4995354;28;19921;-60
2023/03/08 08:34:44;;;;;;;;;;;2.10;99.90;;;;;;4994789;28;19913;-58
2023/03/08 08:37:10;;;;;;;;;;;2.10;99.90;;;;;;4994344;28;20379;-59
2023/03/08 08:39:35;;;;;;;;;;;2.20;99.90;;;;;;4989206;28;19921;-58
2023/03/08 08:42:01;;;;;;;;;;;2.20;99.90;;;;;;4990303;28;20563;-60
2023/03/08 08:44:26;;;;;;;;;;;2.20;99.90;;;;;;4988955;28;19944;-59
2023/03/08 08:46:52;;;;;;;;;;;2.30;99.90;;;;;;4993153;28;19920;-57
2023/03/08 08:49:17;;;;;;;;;;;2.30;99.90;;;;;;4992010;28;20011;-58
2023/03/08 08:51:42;;;;;;;;;;;2.30;99.90;;;;;;4989390;28;20419;-60
2023/03/08 08:54:08;;;;;;;;;;;2.40;99.90;;;;;;4992699;28;19917;-57
2023/03/08 08:56:34;;;;;;;;;;;2.40;99.90;;;;;;4991179;28;19914;-56
2023/03/08 08:59:00;;;;;;;;;;;2.50;99.90;;;;;;4991080;28;19929;-56
2023/03/08 09:01:27;;;;;;;;;;;2.60;99.90;;;;;;4988822;28;19957;-56
2023/03/08 09:03:53;;;;;;;;;;;2.70;99.90;;;;;;4987482;28;19926;-56
2023/03/08 09:06:19;;;;;;;;;;;2.70;99.90;;;;;;4986588;28;19963;-58
2023/03/08 09:08:47;;;;;;;;;;;2.60;99.90;;;;;;4988639;28;19914;-59
2023/03/08 09:11:13;;;;;;;;;;;2.60;99.90;;;;;;4989724;28;19940;-58
2023/03/08 09:13:40;;;;;;;;;;;2.70;99.90;;;;;;4991041;28;20427;-58
2023/03/08 09:16:06;;;;;;;;;;;2.60;99.90;;;;;;4990253;28;20368;-56
2023/03/08 09:18:31;;;;;;;;;;;2.70;99.90;;;;;;4989004;28;19923;-58
2023/03/08 09:20:59;;;;;;;;;;;2.60;99.90;;;;;;4992250;28;19917;-59
2023/03/08 09:23:25;;;;;;;;;;;2.70;99.90;;;;;;4988340;28;19914;-59
2023/03/08 09:25:54;;;;;;;;;;;2.60;99.90;;;;;;4992707;28;19918;-59
2023/03/08 09:28:19;;;;;;;;;;;2.60;99.90;;;;;;4992444;28;20383;-59
2023/03/08 09:30:45;;;;;;;;;;;2.60;99.90;;;;;;4990413;28;19917;-57
2023/03/08 09:33:10;;;;;;;;;;;2.60;99.90;;;;;;4991187;28;20008;-58
2023/03/08 09:35:36;;;;;;;;;;;2.70;99.90;;;;;;4995062;28;20396;-58
2023/03/08 09:38:03;;;;;;;;;;;2.70;99.90;;;;;;4988208;28;21473;-59
2023/03/08 09:40:30;;;;;;;;;;;2.70;99.90;;;;;;4995577;28;20391;-58
2023/03/08 09:42:59;;;;;;;;;;;2.80;99.90;;;;;;4986566;28;20384;-56
2023/03/08 09:45:25;;;;;;;;;;;2.80;99.90;;;;;;4991448;28;19914;-56
2023/03/08 09:48:09;;;;;;;;;;;2.80;99.90;;;;;;4990531;28;20390;-57
2023/03/08 09:50:40;;;;;;;;;;;2.80;99.90;;;;;;4990017;28;19914;-57
2023/03/08 09:53:13;;;;;;;;;;;2.80;99.90;;;;;;5001708;28;19914;-56
2023/03/08 09:55:43;;;;;;;;;;;2.90;99.90;;;;;;4990246;28;19921;-57
2023/03/08 09:58:27;;;;;;;;;;;2.80;99.90;;;;;;4987380;28;19921;-55
2023/03/08 10:00:54;;;;;;;;;;;2.80;99.90;;;;;;4985892;28;20182;-56
2023/03/08 10:03:19;;;;;;;;;;;2.70;99.90;;;;;;4986451;28;20052;-56
2023/03/08 10:05:50;;;;;;;;;;;2.70;99.90;;;;;;4987856;28;20336;-55
2023/03/08 10:08:17;;;;;;;;;;;2.60;99.90;;;;;;4991067;28;20004;-56
2023/03/08 10:11:06;;;;;;;;;;;2.70;99.90;;;;;;4984679;28;19921;-62
2023/03/08 10:13:33;;;;;;;;;;;2.80;99.90;;;;;;4989851;28;19925;-59
2023/03/08 10:16:08;;;;;;;;;;;2.80;99.90;;;;;;4981568;28;19913;-62
2023/03/08 10:18:39;;;;;;;;;;;2.80;99.90;;;;;;4984797;28;19921;-62
2023/03/08 10:21:05;;;;;;;;;;;2.90;99.90;;;;;;4984046;28;20032;-62
2023/03/08 10:23:34;;;;;;;;;;;3.10;99.90;;;;;;4970725;28;20024;-61
2023/03/08 10:26:00;;;;;;;;;;;3.10;99.90;;;;;;4986592;28;20032;-63
2023/03/08 10:28:26;;;;;;;;;;;3.10;99.90;;;;;;4988685;28;19924;-63
2023/03/08 10:30:53;;;;;;;;;;;3.10;99.90;;;;;;4986932;28;19917;-65
2023/03/08 10:33:20;;;;;;;;;;;3.10;99.90;;;;;;4988386;28;19968;-61
2023/03/08 10:35:52;;;;;;;;;;;3.20;99.90;;;;;;4987289;28;19922;-62
2023/03/08 10:38:18;;;;;;;;;;;3.20;99.90;;;;;;4989078;28;19917;-64
2023/03/08 10:40:43;;;;;;;;;;;3.30;99.90;;;;;;4985000;28;20445;-63
2023/03/08 10:43:16;;;;;;;;;;;3.50;99.90;;;;;;4991526;28;19918;-65
2023/03/08 10:45:42;;;;;;;;;;;3.40;99.90;;;;;;4988899;28;20036;-65
2023/03/08 10:48:17;;;;;;;;;;;3.40;99.90;;;;;;4973238;28;20300;-63
2023/03/08 10:50:42;;;;;;;;;;;3.40;99.90;;;;;;4986862;28;19929;-66
2023/03/08 10:53:09;;;;;;;;;;;3.40;99.90;;;;;;4988534;28;20567;-65
2023/03/08 10:55:44;;;;;;;;;;;3.50;99.90;;;;;;4986446;28;19922;-64
2023/03/08 10:58:24;;;;;;;;;;;3.50;99.90;;;;;;4988424;28;19910;-65
2023/03/08 11:00:53;;;;;;;;;;;3.50;99.90;;;;;;4988072;28;20591;-63
2023/03/08 11:03:18;;;;;;;;;;;;;;;;;;4988333;28;19918;-63
2023/03/08 11:05:44;;;;;;;;;;;;;;;;;;4986823;28;19920;-62
2023/03/08 11:08:10;;;;;;;;;;;;;;;;;;4987657;28;19918;-63
2023/03/08 11:10:36;;;;;;;;;;;;;;;;;;4984718;28;19914;-63
2023/03/08 11:13:02;;;;;;;;;;;;;;;;;;4989409;28;19948;-62
2023/03/08 11:15:28;;;;;;;;;;;3.50;99.90;;;;;;4970026;28;19975;-63
2023/03/08 11:17:59;;;;;;;;;;;3.80;99.90;;;;;;4988595;28;20029;-63
2023/03/08 11:20:25;;;;;;;;;;;3.80;99.90;;;;;;4987571;28;19948;-63
2023/03/08 11:23:05;;;;;;;;;;;3.90;99.90;;;;;;4987139;28;19922;-64
2023/03/08 11:25:31;;;;;;;;;;;3.90;99.90;;;;;;4988827;28;19925;-64
2023/03/08 11:28:07;;;;;;;;;;;4.00;99.90;;;;;;4988073;28;19972;-65
2023/03/08 11:30:38;;;;;;;;;;;4.10;99.90;;;;;;5002512;28;19921;-64
2023/03/08 11:33:22;;;;;;;;;;;4.10;99.90;;;;;;4987438;28;19917;-61
2023/03/08 11:35:57;;;;;;;;;;;4.20;99.90;;;;;;4983657;28;19922;-63
2023/03/08 11:38:24;;;;;;;;;;;4.20;99.90;;;;;;4988818;28;19922;-61
2023/03/08 11:40:52;;;;;;;;;;;4.20;99.90;;;;;;4986042;28;19926;-61
2023/03/08 11:43:37;;;;;;;;;;;4.30;99.90;;;;;;4992293;28;19960;-61
2023/03/08 11:46:11;;;;;;;;;;;4.30;99.90;;;;;;4986046;28;19917;-64
2023/03/08 11:48:49;;;;;;;;;;;4.10;99.90;;;;;;4986349;28;20020;-62
2023/03/08 11:51:21;;;;;;;;;;;4.10;99.90;;;;;;4988242;28;19963;-64
2023/03/08 11:54:05;;;;;;;;;;;4.20;99.90;;;;;;4986713;28;19914;-64
2023/03/08 11:56:37;;;;;;;;;;;4.40;99.90;;;;;;4982460;28;19955;-62
2023/03/08 11:59:10;;;;;;;;;;;4.40;99.90;;;;;;4968357;28;19914;-63
2023/03/08 12:01:43;;;;;;;;;;;4.40;99.90;;;;;;4986496;28;20338;-64
2023/03/08 12:04:12;;;;;;;;;;;4.50;99.90;;;;;;4987190;28;19921;-64
2023/03/08 12:06:39;;;;;;;;;;;4.50;99.90;;;;;;4987811;28;21668;-64
2023/03/08 12:09:10;;;;;;;;;;;4.60;99.90;;;;;;4987202;28;19925;-65
2023/03/08 12:11:57;;;;;;;;;;;4.60;99.90;;;;;;4986509;28;19918;-63
2023/03/08 12:14:30;;;;;;;;;;;4.60;99.90;;;;;;4990359;28;19928;-63
2023/03/08 12:17:03;;;;;;;;;;;4.70;99.90;;;;;;4991810;28;19922;-63
2023/03/08 12:19:45;;;;;;;;;;;4.80;99.90;;;;;;4988667;28;19936;-63
2023/03/08 12:22:13;;;;;;;;;;;4.80;99.90;;;;;;4989232;28;20399;-64
2023/03/08 12:24:45;;;;;;;;;;;4.80;99.90;;;;;;4991274;28;19917;-65
2023/03/08 12:27:35;;;;;;;;;;;4.90;99.90;;;;;;4988863;28;19953;-63
2023/03/08 12:30:09;;;;;;;;;;;4.90;99.90;;;;;;4991339;28;19920;-64
2023/03/08 12:32:36;;;;;;;;;;;4.90;99.90;;;;;;4991664;28;19936;-63
2023/03/08 12:35:04;;;;;;;;;;;5.00;99.90;;;;;;4978117;28;19922;-62
2023/03/08 12:37:30;;;;;;;;;;;5.00;99.90;;;;;;4991352;28;19924;-63
2023/03/08 12:40:07;;;;;;;;;;;5.00;99.90;;;;;;4988037;28;20030;-64
2023/03/08 12:42:34;;;;;;;;;;;4.90;99.90;;;;;;4988055;28;19918;-64
2023/03/08 12:45:26;;;;;;;;;;;4.70;99.90;;;;;;4988114;28;19929;-64
2023/03/08 12:47:57;;;;;;;;;;;4.80;99.90;;;;;;4986445;28;19944;-65
2023/03/08 12:50:23;;;;;;;;;;;4.70;99.90;;;;;;4984299;28;19918;-65
2023/03/08 12:52:49;;;;;;;;;;;4.80;99.90;;;;;;4983749;28;19932;-62
2023/03/08 12:55:20;;;;;;;;;;;4.80;99.90;;;;;;4982232;28;19929;-64
2023/03/08 12:57:47;;;;;;;;;;;4.90;99.90;;;;;;4986464;28;19918;-63
2023/03/08 13:00:18;;;;;;;;;;;5.00;99.90;;;;;;4992749;28;19976;-64
2023/03/08 13:02:44;;;;;;;;;;;5.00;99.90;;;;;;4998073;28;20697;-63
2023/03/08 13:05:18;;;;;;;;;;;5.10;99.90;;;;;;4989062;28;19914;-63
2023/03/08 13:08:05;;;;;;;;;;;5.10;99.90;;;;;;4985545;28;19925;-63
2023/03/08 13:10:33;;;;;;;;;;;5.20;99.90;;;;;;4986651;28;19917;-64
2023/03/08 13:12:58;;;;;;;;;;;5.20;99.90;;;;;;4986320;28;19922;-64
2023/03/08 13:15:24;;;;;;;;;;;5.10;99.90;;;;;;4991765;28;19917;-64
2023/03/08 13:18:04;;;;;;;;;;;5.00;99.90;;;;;;4973051;28;19913;-64
2023/03/08 13:20:39;;;;;;;;;;;4.90;99.90;;;;;;4993348;28;19921;-64
2023/03/08 13:23:07;;;;;;;;;;;5.00;99.90;;;;;;4989350;28;19918;-64
2023/03/08 13:25:32;;;;;;;;;;;5.00;99.90;;;;;;4985742;28;19921;-63
2023/03/08 13:28:04;;;;;;;;;;;5.10;99.90;;;;;;4986585;28;19918;-64
2023/03/08 13:30:48;;;;;;;;;;;5.10;99.90;;;;;;4990342;28;20575;-64
2023/03/08 13:33:34;;;;;;;;;;;5.30;99.90;;;;;;4981734;28;20478;-62
2023/03/08 13:36:04;;;;;;;;;;;5.40;99.90;;;;;;4976593;28;19930;-64
2023/03/08 13:38:34;;;;;;;;;;;5.60;99.90;;;;;;4989470;28;19918;-64
2023/03/08 13:40:59;;;;;;;;;;;5.60;99.90;;;;;;4978151;28;20039;-63
2023/03/08 13:43:29;;;;;;;;;;;5.70;99.90;;;;;;4978749;28;20046;-66
2023/03/08 13:45:56;;;;;;;;;;;5.60;99.90;;;;;;4989856;28;20412;-64
2023/03/08 13:48:23;;;;;;;;;;;5.50;99.90;;;;;;4993912;28;19933;-63
2023/03/08 13:50:49;;;;;;;;;;;5.50;99.90;;;;;;4989722;28;19918;-62
2023/03/08 13:53:17;;;;;;;;;;;5.60;99.90;;;;;;4988566;28;19918;-63
2023/03/08 13:55:44;;;;;;;;;;;5.50;99.90;;;;;;4986138;28;19918;-62
2023/03/08 13:58:21;;;;;;;;;;;5.50;99.90;;;;;;4989791;28;20020;-65
2023/03/08 14:00:56;;;;;;;;;;;5.40;99.90;;;;;;4987256;28;19928;-65
2023/03/08 14:03:21;;;;;;;;;;;5.40;99.90;;;;;;4989780;28;19917;-63
2023/03/08 14:05:47;;;;;;;;;;;5.40;99.90;;;;;;4984946;28;19972;-65
2023/03/08 14:08:19;;;;;;;;;;;5.40;99.90;;;;;;4985299;28;19917;-64
2023/03/08 14:10:47;;;;;;;;;;;5.30;99.90;;;;;;4983182;28;19918;-64
2023/03/08 14:13:21;;;;;;;;;;;5.20;99.90;;;;;;4983613;28;19917;-65
2023/03/08 14:15:48;;;;;;;;;;;5.20;99.90;;;;;;4985122;28;20004;-63
2023/03/08 14:18:20;;;;;;;;;;;5.20;99.90;;;;;;4986255;28;20454;-64
2023/03/08 14:20:57;;;;;;;;;;;5.20;99.90;;;;;;4989015;28;19979;-63
2023/03/08 14:23:24;;;;;;;;;;;5.30;99.90;;;;;;4985065;28;20426;-55
2023/03/08 14:25:54;;;;;;;;;;;5.30;99.90;;;;;;4986071;28;19922;-57
2023/03/08 14:28:32;;;;;;;;;;;5.30;99.90;;;;;;4984452;28;19928;-54
2023/03/08 14:30:58;;;;;;;;;;;5.20;99.90;;;;;;4985184;28;19922;-55
2023/03/08 14:33:27;;;;;;;;;;;5.20;99.90;;;;;;4985137;28;19928;-57